Colbert, Washington
Current Conditions -  °F | °C
As of 8:53 PM on Monday 20 Oct 2014 (Local Time) from KSFF Reporting Station
Overcast Overcast  
Wind Chill: 60°   Ceiling: 6000
Heat Index: 60°   Visibility: 10mi
Dew Point: 48°   Wind: 14mph
Humidity: 64%   Direction: 240°WSW
Pressure: 29.77"   Gusts: 17mph
Location:  47.83°N, 117.34°W
Report Text: KSFF 210353Z AUTO 24012G15KT 10SM OVC060 16/09 A2977 RMK AO2 SLP078 T01560089
Loading
Personal Weather Stations






























Interactive Weather Map
Tropical Storm Tracking
New forecast layout! Learn more

10-Day Weather Forecast

Advertisements
Track Severe Weather on mobile